LFBZLFBP

Guest
Details From LFBZ - Biarritz-Anglet-Bayonne
To LFBP - Pau Pyrenees
Flight Number -
Tags generated
Created
Modified
Stats Distance 48 nm / 90 km
Max Altitude 6,500 ft / 1,981 m
Waypoints 4
Social Downloads 8
Likes 0
Share VATSIM

Download

Looking for another format? Having issues loading an existing format? Contact us
Advertisement - Login to hide

Notes

Basic altitude profile: - Ascent Rate: 2500ft/min - Ascent Speed: 250kts - Cruise Altitude: 35000ft - Cruise Speed: 420kts - Descent Rate: 1500ft/min - Descent Speed: 250kts Options: - Use NATs: yes - Use PACOTS: no - Use low airways: yes - Use high airways: no

Route

LFBZ BTZ G17 BIDAC LFBP

ID Type Via Altitude Latitude Longitude Leg Dist Tot Dist Heading (true) Name
O LFBZ APT - 0 ft / 0 m 43.46843˚ -1.52332˚ - 0 nm - Biarritz-Anglet-Bayonne
BTZ VOR - 200 ft / 61 m 43.46664˚ -1.51028˚ 0 nm 0 nm 101° / 101° BIARRITZ BAYONNE ANGLET VOR-DM
BIDAC FIX G17 (AWY-LO) 6,500 ft / 1,981 m 43.41733˚ -1.13567˚ 16 nm 17 nm 100° / 100° -
O LFBP APT - 0 ft / 0 m 43.38108˚ -0.42075˚ 31 nm 48 nm 94° / 94° Pau Pyrenees

Altitude Profile

Advertisement - Login to hide

LFBZ

Details ICAO LFBZ (BIQ)
Name Biarritz-Anglet-Bayonne
Region France
Timezone Europe/Paris (UTC+1.0)
Stats Elevation 245 ft / 75 m (AMSL)
Location 43.468427° -1.523322°
Runways 1
Magnetic Variation 0.224° W

METAR

LFBZ 180700Z AUTO 23005KT 9000 -RA BKN020 BKN027 OVC035 09/07 Q1033 TEMPO 21015G25KT 4000 -RA BKN014

Decode

TAF

TAF LFBZ 180500Z 1806/1906 24004KT 9999 FEW018 SCT025 BKN035 TEMPO 1806/1820 21015G25KT 4000 -RA BKN014 PROB30 TEMPO 1815/1820 30020G30KT 1000 RADZ BKN003 OVC007

Decode

Departure Runways

ID Width Length Bearing (true) Bearing (mag) Surface Threshold Offset Overrun Length
09 148 ft / 45 m 7,388 ft / 2,252 m 89.12° 89.34° Asphalt 673 ft / 205 m 0 ft / 0 m
27 148 ft / 45 m 7,388 ft / 2,252 m 269.14° 269.36° Asphalt 0 ft / 0 m 0 ft / 0 m

LFBP

Details ICAO LFBP (PUF)
Name Pau Pyrenees
Region France
Timezone Europe/Paris (UTC+1.0)
Stats Elevation 616 ft / 188 m (AMSL)
Location 43.381078° -0.420752°
Runways 1
Magnetic Variation 0.095° E

METAR

LFBP 180700Z AUTO 24006KT 7000 -DZ SCT024 OVC031 06/05 Q1032 TEMPO 4000 -RA BKN012

Decode

TAF

TAF LFBP 180500Z 1806/1906 12003KT 9999 FEW030 BKN070 TEMPO 1806/1824 4000 -RA BKN012 PROB40 TEMPO 1811/1818 25015G25KT PROB40 TEMPO 1816/1821 BKN005

Decode

Destination Runways

ID Width Length Bearing (true) Bearing (mag) Surface Threshold Offset Overrun Length
13 148 ft / 45 m 8,191 ft / 2,497 m 125.89° 125.79° Asphalt 0 ft / 0 m 0 ft / 0 m
31 148 ft / 45 m 8,191 ft / 2,497 m 305.90° 305.80° Asphalt 0 ft / 0 m 0 ft / 0 m

Approach Navaids

Runway Type Ident Frequency Range Bearing (true) Bearing (mag) Slope Elevation
31 Localiser PU 110.10 MHz 18 nm / 33 km 305.89° 305.79° - 576 ft / 176 m (AMSL)
31 Glidescope PU 110.10 MHz 10 nm / 19 km 305.90° 305.80° 3.00° 676 ft / 206 m (AMSL)
31 DME PU 110.10 MHz 18 nm / 33 km - - - 608 ft / 185 m (AMSL)

Popular Alternatives